KRNT - Renton
Updated: Thu, 20-Jun-2019 3:53pm PDT

 Wind from S
Wind: S 7 mph , 11 km/h
Temperature: 66°F , 19°C
Dew Point: 43°F , 6°C
Humidity: 43%
Barometer: 30.08 inHg , 1018.6 hPa
Visibility: 10 miles , 16 km
Cloud details: 6500 ft
8000 ft
2019/06/20 22:53 KRNT 202253Z 19006KT 10SM BKN065 OVC080 19/06 A3008 RMK AO2 SLP190 T01940061 $
KBFI - Seattle-Boeing
Updated: Thu, 20-Jun-2019 3:53pm PDT

 Wind from S
Wind: S 7 mph , 11 km/h
Temperature: 68°F , 20°C
Dew Point: 43°F , 6°C
Humidity: 40%
Barometer: 30.08 inHg , 1018.6 hPa
Visibility: 10 miles , 16 km
Cloud details: 6000 ft
2019/06/20 22:53 KBFI 202253Z 19006KT 10SM BKN060 20/06 A3008 RMK AO2 SLP185 T02000056
 
KSEA - Seattle
Updated: Thu, 20-Jun-2019 3:53pm PDT

 Wind from SSW
Wind: SSW 10 mph , 17 km/h
Temperature: 66°F , 19°C
Dew Point: 39°F , 4°C
Humidity: 37%
Barometer: 30.09 inHg , 1019 hPa
Visibility: 10 miles , 16 km
Cloud details: 4500 ft
6500 ft
25000 ft
2019/06/20 22:53 KSEA 202253Z 21009KT 10SM FEW045 BKN065 BKN250 19/04 A3009 RMK AO2 SLP195 T01890044
KSMP - Stampede Pass
Updated: Thu, 20-Jun-2019 4:13pm PDT

 Wind from varies
Wind: varies 5 mph , 7 km/h
Temperature: 43°F , 6°C
Wind Chill: 40°F , 4°C
Dew Point: 39°F , 4°C
Humidity: 87%
Barometer: 30.07 inHg , 1018.3 hPa
Visibility: 10 miles , 16 km
Cloud details: 1300 ft
2000 ft
4200 ft
2019/06/20 23:13 KSMP 202313Z AUTO VRB04KT 10SM BKN013 BKN020 OVC042 06/04 A3007 RMK AO2 T00610044